• Join FlightAware (Why Join?)
  • Login
  • US Flag 
08:30AM EDT


 

Airport Tracker/Info


-or-


 

Live Flight TrackerFlight Track Log ✈ BJS444 ✈ 21-Apr-2013 ✈ KBED - KJXN

Flight Track Log - Related Links

Times and Time Zones

All times are in EDT time to prevent confusion due to time zone crossing. See the BJS444 flight status page for this flight to view local times or setup timezone preferences in your user account.

Time Position Orientation Groundspeed Altitude Reporting Facility
EDT Latitude Longitude Course Direction KTS MPH feet Rate Location/Type
04:06PM 42.4667 -71.3167 238° Southwest 188 216 1,100  Level KA90
04:08PM 42.3900 -71.4817 238° Southwest 271 312 6,800 2,880 Climbing Boston Center
04:09PM 42.3681 -71.5775 253° West 253 291 10,600 3,540 Climbing Boston Center
04:10PM 42.3581 -71.6703 262° West 272 313 13,900 3,600 Climbing Boston Center
04:11PM 42.3506 -71.8025 266° West 315 362 17,900 3,480 Climbing Boston Center
04:12PM 42.3450 -71.9175 266° West 332 382 20,900 3,060 Climbing Boston Center
04:13PM 42.3392 -72.0469 267° West 344 396 24,100 3,060 Climbing Boston Center
04:14PM 42.3333 -72.1761 267° West 349 402 27,100 2,580 Climbing Boston Center
04:15PM 42.3253 -72.3053 265° West 349 402 29,300 2,100 Climbing Boston Center
04:16PM 42.3192 -72.4428 267° West 354 407 31,300 2,040 Climbing Boston Center
04:17PM 42.3108 -72.5778 265° West 361 415 33,400 2,100 Climbing Boston Center
04:18PM 42.3022 -72.7208 265° West 361 415 35,600 1,740 Climbing Boston Center
04:19PM 42.2956 -72.8500 266° West 361 415 36,900 1,140 Climbing Boston Center
04:20PM 42.2908 -72.9844 267° West 361 415 37,900 960 Climbing Boston Center
04:21PM 42.3044 -73.1222 278° West 366 421 38,900 1,020 Climbing Boston Center
04:22PM 42.3142 -73.2572 276° West 366 421 40,000 960 Climbing Boston Center
04:23PM 42.3278 -73.3836 278° West 361 415 40,900 840 Climbing Boston Center
04:24PM 42.3369 -73.5242 275° West 359 413 41,700 600 Climbing Boston Center
04:25PM 42.3481 -73.6592 276° West 371 427 42,200 480 Climbing Boston Center
04:26PM 42.3589 -73.7972 276° West 371 427 42,700 360 Climbing Boston Center
04:27PM 42.3675 -73.9350 275° West 371 427 43,000 120 Climbing Boston Center
04:28PM 42.3781 -74.0758 276° West 371 427 43,000  Level Boston Center
04:29PM 42.3886 -74.2222 276° West 383 441 43,000  Level Boston Center
04:30PM 42.4008 -74.3661 277° West 388 447 43,000  Level Boston Center
04:31PM 42.4083 -74.5181 274° West 388 447 43,000  Level Boston Center
04:32PM 42.4183 -74.6619 275° West 388 447 43,000  Level Boston Center
04:33PM 42.4258 -74.8028 274° West 388 447 43,000  Level Boston Center
04:34PM 42.4353 -74.9494 275° West 388 447 43,000  Level Boston Center
04:35PM 42.4444 -75.0906 275° West 388 447 43,000  Level Boston Center
04:36PM 42.4558 -75.2289 276° West 388 447 43,000  Level Boston Center
04:37PM 42.4644 -75.3758 275° West 388 447 43,000  Level Boston Center
04:38PM 42.4733 -75.5197 275° West 388 447 43,000  Level Boston Center
04:39PM 42.4797 -75.6636 273° West 388 447 43,000  Level Boston Center
04:40PM 42.4900 -75.8078 276° West 388 447 43,000  Level Boston Center
04:43PM 42.5086 -76.1519 274° West 381 438 43,000  Level Cleveland Center
04:44PM 42.5161 -76.2981 274° West 381 438 43,000  Level Cleveland Center
04:45PM 42.5025 -76.4372 262° West 381 438 43,000  Level Cleveland Center
04:46PM 42.4886 -76.5761 262° West 381 438 43,000  Level Cleveland Center
04:47PM 42.4725 -76.7178 261° West 381 438 43,000  Level Cleveland Center
04:48PM 42.4583 -76.8594 262° West 386 444 43,000  Level Cleveland Center
04:49PM 42.4422 -77.0011 261° West 386 444 43,000  Level Cleveland Center
04:50PM 42.4278 -77.1428 262° West 386 444 43,000  Level Cleveland Center
04:51PM 42.4108 -77.2814 261° West 386 444 43,000  Level Cleveland Center
04:52PM 42.3944 -77.4369 262° West 386 444 43,000  Level Cleveland Center
04:53PM 42.3794 -77.5756 262° West 386 444 43,000  Level Cleveland Center
04:54PM 42.3619 -77.7169 261° West 386 444 43,000  Level Cleveland Center
04:55PM 42.3447 -77.8608 261° West 386 444 43,000  Level Cleveland Center
04:56PM 42.3292 -77.9992 261° West 386 444 43,000  Level Cleveland Center
04:57PM 42.3114 -78.1403 260° West 386 444 43,000  Level Cleveland Center
04:58PM 42.2956 -78.2814 261° West 391 450 43,000  Level Cleveland Center
04:59PM 42.2775 -78.4222 260° West 391 450 43,000  Level Cleveland Center
05:00PM 42.2611 -78.5631 261° West 391 450 43,000  Level Cleveland Center
05:01PM 42.2447 -78.7039 261° West 391 450 43,000  Level Cleveland Center
05:02PM 42.2242 -78.8475 259° West 391 450 43,000  Level Cleveland Center
05:03PM 42.2053 -78.9853 260° West 391 450 43,000  Level Cleveland Center
05:04PM 42.1883 -79.1258 261° West 391 450 43,000  Level Cleveland Center
05:05PM 42.1861 -79.2744 269° West 391 450 43,000  Level Cleveland Center
05:06PM 42.1833 -79.4175 269° West 391 450 43,000  Level Cleveland Center
05:07PM 42.1806 -79.5633 269° West 391 450 43,000  Level Cleveland Center
05:08PM 42.1797 -79.7089 270° West 391 450 43,000  Level Cleveland Center
05:09PM 42.1767 -79.8547 268° West 386 444 43,000  Level Cleveland Center
05:10PM 42.1733 -80.0006 268° West 386 444 43,000  Level Cleveland Center
05:11PM 42.1697 -80.1489 268° West 387 445 43,000  Level Cleveland Center
05:12PM 42.1658 -80.2778 268° West 387 445 43,000 -540 Level Cleveland Center
05:13PM 42.1642 -80.4292 269° West 387 445 42,000 -1,020 Descending Cleveland Center
05:14PM 42.1581 -80.5747 267° West 400 460 41,000 -1,020 Descending Cleveland Center
05:15PM 42.1536 -80.7203 268° West 400 460 40,000 -1,020 Descending Cleveland Center
05:16PM 42.1492 -80.8689 268° West 400 460 39,000 -1,020 Descending Cleveland Center
05:17PM 42.1467 -81.0200 269° West 408 470 38,000 -1,020 Descending Cleveland Center
05:18PM 42.1419 -81.1628 267° West 398 458 37,000 -1,020 Descending Cleveland Center
05:19PM 42.1389 -81.3139 268° West 405 466 36,000 -1,020 Descending Cleveland Center
05:20PM 42.1317 -81.4764 267° West 405 466 35,000 -1,020 Descending Cleveland Center
05:21PM 42.1261 -81.6247 267° West 399 459 34,000 -540 Descending Cleveland Center
05:22PM 42.1247 -81.7675 269° West 399 459 34,000  Level Cleveland Center
05:23PM 42.1461 -81.9161 281° West 400 460 34,000 -540 Level Cleveland Center
05:24PM 42.1694 -82.0567 283° West 400 460 33,000 -1,020 Descending Cleveland Center
05:25PM 42.1906 -82.1889 282° West 395 455 32,000 -1,020 Descending Cleveland Center
05:26PM 42.2156 -82.3353 283° West 395 455 31,000 -1,020 Descending Cleveland Center
05:27PM 42.2381 -82.4819 282° West 395 455 30,000 -1,020 Descending Cleveland Center
05:28PM 42.2608 -82.6256 282° West 395 455 29,000 -1,020 Descending Cleveland Center
05:29PM 42.2811 -82.7694 281° West 395 455 28,000 -1,020 Descending Cleveland Center
05:30PM 42.3053 -82.9106 283° West 395 455 27,000 -1,020 Descending Cleveland Center
05:31PM 42.3253 -83.0519 281° West 395 455 26,000 -1,020 Descending Cleveland Center
05:32PM 42.3472 -83.1875 282° West 390 449 25,000 -1,020 Descending Cleveland Center
05:33PM 42.3669 -83.3261 281° West 385 443 24,000 -540 Descending Cleveland Center
05:34PM 42.3867 -83.4564 282° West 369 425 24,000 -1,020 Level Cleveland Center
05:35PM 42.4044 -83.5781 281° West 345 397 22,000 -6,540 Descending Cleveland Center
05:36PM 42.3886 -83.7067 261° West 318 366 11,000 -2,820 Descending Cleveland Center
05:37PM 42.3667 -83.8208 255° West 318 366 16,400 1,080 Climbing Cleveland Center
05:38PM 42.3489 -83.9350 258° West 313 360 13,200 -3,360 Descending Cleveland Center
05:39PM 42.3289 -84.0464 256° West 313 360 9,700 -3,540 Descending Cleveland Center
05:40PM 42.3194 -84.1442 263° West 299 344 6,200 -3,300 Descending Cleveland Center
05:41PM 42.3228 -84.2372 273° West 271 312 3,100 -1,800 Descending Cleveland Center
05:42PM 42.3222 -84.3269 270° West 253 291 2,700 -180 Descending Cleveland Center
05:43PM 42.2992 -84.3931 245° Southwest 204 235 2,800 -300 Climbing Cleveland Center
05:44PM 42.2806 -84.4508 246° West 198 228 2,200 4,080 Descending Cleveland Center
05:45PM 42.2614 -84.5197 249° West 198 228 11,000 4,380 Climbing Cleveland Center
05:46PM 42.2444 -84.5889 252° West 198 228 11,000  Level Cleveland Center
05:48PM 42.2500 -84.4500 80° East  Level FlightAware Approximate
05:55PM 42.2604 -84.4604 80° East  Level Estimated